createdAt,value
2022-08-17T00:00:00.404Z,5.80
2022-08-17T00:02:27.462Z,6.93
2022-08-17T00:04:55.553Z,5.07
2022-08-17T00:07:22.551Z,6.10
2022-08-17T00:09:49.319Z,6.13
2022-08-17T00:12:42.083Z,6.50
2022-08-17T00:15:05.327Z,5.90
2022-08-17T00:17:33.002Z,6.67
2022-08-17T00:20:00.706Z,6.30
2022-08-17T00:22:31.864Z,5.80
2022-08-17T00:25:05.754Z,6.93
2022-08-17T00:27:33.607Z,5.70
2022-08-17T00:30:00.473Z,7.10
2022-08-17T00:33:14.246Z,6.53
2022-08-17T00:35:18.364Z,5.50
2022-08-17T00:37:45.361Z,6.30
2022-08-17T00:40:15.362Z,6.53
2022-08-17T00:42:43.822Z,6.70
2022-08-17T00:45:13.212Z,6.27
2022-08-17T00:47:40.227Z,6.07
2022-08-17T00:50:09.906Z,6.03
2022-08-17T00:52:43.364Z,6.53
2022-08-17T00:55:10.683Z,6.27
2022-08-17T00:57:44.753Z,6.17
2022-08-17T01:00:26.640Z,6.20
2022-08-17T01:02:58.986Z,5.70
2022-08-17T01:05:28.663Z,7.43
2022-08-17T01:07:56.259Z,6.07
2022-08-17T01:10:58.690Z,5.87
2022-08-17T01:13:36.750Z,6.67
2022-08-17T01:16:13.540Z,7.60
2022-08-17T01:18:40.394Z,7.43
2022-08-17T01:21:16.290Z,6.77
2022-08-17T01:23:43.264Z,6.43
2022-08-17T01:26:10.044Z,6.93
2022-08-17T01:28:53.694Z,7.43
2022-08-17T01:31:24.630Z,6.40
2022-08-17T01:33:51.637Z,6.83
2022-08-17T01:36:18.413Z,6.37
2022-08-17T01:38:45.193Z,7.13
2022-08-17T01:41:15.432Z,6.67
2022-08-17T01:43:57.334Z,6.90
2022-08-17T01:46:27.929Z,7.07
2022-08-17T01:48:56.314Z,6.30
2022-08-17T01:51:25.089Z,6.03
2022-08-17T01:53:54.817Z,7.10
2022-08-17T01:56:24.175Z,7.60
2022-08-17T01:58:51.120Z,7.30
2022-08-17T02:01:21.860Z,7.63
2022-08-17T02:03:59.061Z,7.50
2022-08-17T02:06:30.409Z,7.17
2022-08-17T02:09:03.020Z,6.73
2022-08-17T02:11:32.317Z,6.60
2022-08-17T02:14:02.396Z,7.27
2022-08-17T02:16:37.441Z,6.87
2022-08-17T02:19:08.005Z,6.63
2022-08-17T02:21:37.077Z,7.20
2022-08-17T02:24:07.367Z,7.93
2022-08-17T02:26:35.137Z,7.53
2022-08-17T02:29:02.074Z,6.87
2022-08-17T02:31:30.072Z,8.37
2022-08-17T02:34:03.585Z,7.10
2022-08-17T02:36:31.878Z,7.40
2022-08-17T02:38:58.701Z,7.30
2022-08-17T02:41:25.702Z,6.80
2022-08-17T02:43:53.574Z,7.83
2022-08-17T02:46:20.298Z,7.80
2022-08-17T02:48:47.396Z,7.43
2022-08-17T02:51:14.500Z,7.57
2022-08-17T02:53:41.212Z,8.20
2022-08-17T02:56:08.043Z,8.23
2022-08-17T02:58:36.084Z,8.13
2022-08-17T03:01:06.413Z,7.43
2022-08-17T03:03:33.746Z,7.83
2022-08-17T03:06:00.987Z,7.30
2022-08-17T03:08:27.783Z,8.23
2022-08-17T03:10:54.578Z,8.40
2022-08-17T03:13:21.623Z,7.50
2022-08-17T03:15:49.306Z,7.83
2022-08-17T03:18:24.866Z,8.20
2022-08-17T03:20:58.043Z,8.30
2022-08-17T03:23:25.782Z,7.20
2022-08-17T03:25:54.123Z,8.70
2022-08-17T03:28:22.215Z,8.67
2022-08-17T03:30:49.424Z,8.03
2022-08-17T03:33:16.967Z,6.87
2022-08-17T03:35:44.234Z,7.10
2022-08-17T03:38:15.053Z,7.90
2022-08-17T03:40:59.092Z,8.10
2022-08-17T03:43:28.835Z,7.03
2022-08-17T03:46:28.272Z,7.40
2022-08-17T03:49:20.773Z,8.60
2022-08-17T03:52:06.188Z,8.17
2022-08-17T03:54:51.722Z,7.20
2022-08-17T03:57:19.213Z,8.83
2022-08-17T03:59:46.383Z,7.37
2022-08-17T04:02:30.132Z,7.80
2022-08-17T04:04:57.497Z,7.77
2022-08-17T04:07:27.752Z,8.50
2022-08-17T04:09:55.071Z,8.47
2022-08-17T04:12:23.159Z,8.20
2022-08-17T04:14:53.187Z,7.60
2022-08-17T04:17:27.345Z,7.80
2022-08-17T04:19:55.227Z,8.80
2022-08-17T04:22:30.386Z,8.90
2022-08-17T04:24:58.777Z,8.10
2022-08-17T04:27:25.601Z,7.77
2022-08-17T04:29:55.055Z,9.13
2022-08-17T04:32:58.333Z,8.67
2022-08-17T04:35:10.148Z,7.87
2022-08-17T04:37:36.883Z,9.03
2022-08-17T04:40:26.517Z,8.00
2022-08-17T04:43:21.970Z,7.50
2022-08-17T04:45:56.708Z,7.80
2022-08-17T04:48:36.605Z,8.27
2022-08-17T04:51:10.660Z,9.10
2022-08-17T04:53:42.065Z,9.13
2022-08-17T04:56:11.532Z,7.20
2022-08-17T04:58:38.719Z,7.93
2022-08-17T05:01:07.081Z,9.07
2022-08-17T05:03:34.357Z,9.50
2022-08-17T05:06:01.115Z,8.97
2022-08-17T05:08:28.174Z,8.80
2022-08-17T05:10:55.025Z,8.13
2022-08-17T05:13:24.523Z,8.17
2022-08-17T05:15:55.369Z,8.10
2022-08-17T05:18:22.269Z,8.40
2022-08-17T05:20:52.381Z,8.73
2022-08-17T05:23:22.031Z,8.47
2022-08-17T05:25:52.041Z,8.97
2022-08-17T05:28:23.465Z,9.20
2022-08-17T05:30:56.256Z,8.43
2022-08-17T05:33:26.448Z,8.03
2022-08-17T05:35:55.587Z,7.53
2022-08-17T05:38:24.345Z,7.50
2022-08-17T05:40:51.775Z,7.77
2022-08-17T05:43:30.832Z,10.10
2022-08-17T05:46:03.239Z,9.60
2022-08-17T05:48:43.901Z,8.00
2022-08-17T05:51:46.483Z,8.60
2022-08-17T05:54:27.025Z,9.63
2022-08-17T05:57:18.260Z,7.97
2022-08-17T06:00:07.272Z,8.07
2022-08-17T06:03:00.452Z,9.10
2022-08-17T06:05:50.897Z,9.10
2022-08-17T06:08:30.404Z,8.30
2022-08-17T06:11:15.970Z,7.33
2022-08-17T06:14:14.536Z,9.40
2022-08-17T06:16:46.431Z,8.40
2022-08-17T06:19:20.900Z,8.60
2022-08-17T06:21:50.938Z,7.90
2022-08-17T06:24:23.918Z,9.33
2022-08-17T06:26:52.275Z,10.93
2022-08-17T06:29:41.696Z,8.10
2022-08-17T06:32:12.193Z,8.80
2022-08-17T06:34:41.290Z,8.03
2022-08-17T06:37:54.006Z,8.40
2022-08-17T06:40:38.072Z,7.83
2022-08-17T06:43:21.281Z,8.10
2022-08-17T06:45:57.482Z,8.87
2022-08-17T06:48:35.968Z,9.17
2022-08-17T06:51:23.000Z,7.70
2022-08-17T06:54:05.324Z,7.23
2022-08-17T06:56:59.652Z,7.90
2022-08-17T06:59:54.633Z,7.43
2022-08-17T07:02:52.566Z,7.17
2022-08-17T07:05:25.462Z,7.33
2022-08-17T07:08:12.572Z,7.50
2022-08-17T07:10:53.887Z,10.13
2022-08-17T07:13:25.806Z,8.00
2022-08-17T07:15:59.117Z,8.53
2022-08-17T07:18:33.154Z,7.87
2022-08-17T07:21:11.968Z,7.93
2022-08-17T07:24:01.347Z,8.27
2022-08-17T07:26:29.543Z,7.47
2022-08-17T07:28:57.042Z,7.07
2022-08-17T07:31:26.104Z,7.87
2022-08-17T07:34:03.483Z,6.97
2022-08-17T07:36:33.841Z,7.33
2022-08-17T07:39:02.274Z,6.97
2022-08-17T07:41:53.253Z,7.10
2022-08-17T07:44:21.895Z,6.23
2022-08-17T07:47:10.384Z,7.43
2022-08-17T07:49:39.938Z,7.17
2022-08-17T07:52:47.769Z,6.50
2022-08-17T07:54:58.544Z,6.73
2022-08-17T07:57:35.525Z,6.50
2022-08-17T08:00:02.277Z,5.53
2022-08-17T08:02:38.903Z,6.50
2022-08-17T08:05:30.798Z,6.47
2022-08-17T08:08:43.658Z,6.53
2022-08-17T08:11:15.414Z,6.23
2022-08-17T08:13:45.681Z,5.53
2022-08-17T08:16:27.401Z,6.40
2022-08-17T08:19:00.553Z,6.90
2022-08-17T08:21:33.501Z,6.17
2022-08-17T08:24:15.064Z,5.90
2022-08-17T08:27:07.177Z,5.90
2022-08-17T08:30:10.153Z,6.57
2022-08-17T08:33:04.183Z,5.90
2022-08-17T08:35:37.308Z,6.73
2022-08-17T08:38:26.815Z,6.57
2022-08-17T08:41:05.976Z,6.50
2022-08-17T08:43:53.081Z,6.20
2022-08-17T08:46:39.507Z,6.00
2022-08-17T08:50:04.419Z,6.10
2022-08-17T08:52:48.086Z,6.33
2022-08-17T08:55:34.461Z,7.10
2022-08-17T08:58:08.330Z,12.57
2022-08-17T09:00:58.296Z,5.90
2022-08-17T09:03:52.890Z,5.43
2022-08-17T09:06:45.000Z,4.80
2022-08-17T09:09:19.904Z,4.73
2022-08-17T09:12:10.709Z,4.80
2022-08-17T09:14:47.163Z,4.63
2022-08-17T09:17:19.484Z,4.37
2022-08-17T09:20:27.448Z,4.70
2022-08-17T09:23:15.043Z,5.00
2022-08-17T09:25:49.938Z,4.50
2022-08-17T09:28:27.710Z,4.10
2022-08-17T09:31:02.475Z,4.67
2022-08-17T09:33:33.963Z,11.77
2022-08-17T09:36:05.829Z,4.90
2022-08-17T09:38:44.125Z,4.70
2022-08-17T09:41:35.608Z,5.13
2022-08-17T09:44:26.452Z,5.80
2022-08-17T09:47:12.184Z,4.70
2022-08-17T09:49:46.970Z,4.00
2022-08-17T09:52:21.163Z,4.23
2022-08-17T09:54:50.867Z,4.40
2022-08-17T09:57:31.018Z,4.20
2022-08-17T10:00:17.054Z,4.10
2022-08-17T10:03:05.359Z,4.80
2022-08-17T10:05:56.836Z,4.50
2022-08-17T10:08:52.460Z,4.53
2022-08-17T10:12:05.970Z,5.57
2022-08-17T10:14:57.357Z,4.97
2022-08-17T10:17:29.862Z,5.00
2022-08-17T10:20:04.267Z,4.60
2022-08-17T10:23:04.605Z,4.60
2022-08-17T10:25:55.391Z,5.67
2022-08-17T10:28:29.718Z,4.27
2022-08-17T10:31:30.905Z,4.23
2022-08-17T10:34:13.320Z,3.87
2022-08-17T10:37:05.592Z,4.30
2022-08-17T10:39:52.139Z,4.17
2022-08-17T10:42:45.798Z,4.00
2022-08-17T10:45:29.499Z,4.20
2022-08-17T10:48:05.816Z,4.10
2022-08-17T10:50:42.657Z,4.40
2022-08-17T10:53:09.541Z,4.33
2022-08-17T10:55:36.521Z,4.50
2022-08-17T10:58:21.981Z,6.13
2022-08-17T11:00:51.941Z,4.43
2022-08-17T11:03:22.732Z,6.10
2022-08-17T11:06:30.778Z,4.10
2022-08-17T11:09:20.006Z,5.37
2022-08-17T11:11:55.820Z,4.00
2022-08-17T11:14:37.989Z,6.60
2022-08-17T11:17:53.937Z,5.40
2022-08-17T11:20:32.460Z,4.53
2022-08-17T11:23:18.389Z,4.63
2022-08-17T11:25:52.015Z,5.30
2022-08-17T11:28:36.017Z,3.67
2022-08-17T11:31:39.101Z,3.83
2022-08-17T11:34:21.333Z,3.80
2022-08-17T11:36:48.045Z,3.50
2022-08-17T11:39:14.815Z,4.30
2022-08-17T11:41:49.599Z,4.33
2022-08-17T11:45:00.647Z,4.00
2022-08-17T11:48:26.021Z,4.20
2022-08-17T11:51:24.789Z,4.03
2022-08-17T11:54:03.521Z,4.80
2022-08-17T11:56:43.656Z,4.40
2022-08-17T11:59:50.241Z,3.80
2022-08-17T12:02:20.070Z,4.10
2022-08-17T12:05:12.844Z,4.20
2022-08-17T12:07:49.234Z,3.93
2022-08-17T12:10:21.500Z,4.37
2022-08-17T12:12:52.242Z,4.13
2022-08-17T12:15:27.674Z,4.07
2022-08-17T12:17:56.659Z,3.77
2022-08-17T12:20:27.782Z,3.70
2022-08-17T12:23:18.455Z,4.00
2022-08-17T12:26:05.826Z,4.60
2022-08-17T12:28:36.639Z,3.77
2022-08-17T12:31:15.914Z,3.87
2022-08-17T12:33:47.471Z,4.50
2022-08-17T12:36:17.229Z,3.90
2022-08-17T12:39:12.797Z,4.03
2022-08-17T12:41:44.885Z,3.73
2022-08-17T12:44:12.261Z,3.60
2022-08-17T12:47:22.422Z,3.77
2022-08-17T12:49:52.819Z,4.27
2022-08-17T12:52:28.131Z,4.00
2022-08-17T12:55:06.954Z,3.83
2022-08-17T12:57:43.207Z,3.97
2022-08-17T13:00:17.768Z,4.10
2022-08-17T13:02:49.152Z,4.33
2022-08-17T13:05:23.655Z,3.80
2022-08-17T13:07:50.881Z,5.03
2022-08-17T13:10:21.447Z,4.77
2022-08-17T13:12:50.861Z,5.17
2022-08-17T13:15:23.598Z,6.00
2022-08-17T13:18:04.312Z,6.07
2022-08-17T13:20:31.858Z,5.37
2022-08-17T13:23:01.166Z,6.30
2022-08-17T13:25:29.123Z,6.53
2022-08-17T13:27:56.607Z,6.27
2022-08-17T13:30:28.356Z,5.47
2022-08-17T13:32:57.171Z,5.70
2022-08-17T13:35:50.395Z,5.57
2022-08-17T13:38:45.752Z,5.40
2022-08-17T13:41:34.580Z,5.03
2022-08-17T13:44:01.909Z,5.13
2022-08-17T13:46:33.155Z,5.60
2022-08-17T13:49:05.993Z,5.10
2022-08-17T13:51:41.505Z,5.03
2022-08-17T13:54:24.504Z,5.03
2022-08-17T13:56:51.234Z,5.33
2022-08-17T13:59:53.572Z,5.00
2022-08-17T14:02:20.532Z,5.50
2022-08-17T14:04:48.153Z,4.97
2022-08-17T14:07:16.138Z,4.50
2022-08-17T14:10:14.521Z,4.07
2022-08-17T14:12:44.440Z,4.27
2022-08-17T14:15:14.385Z,4.63
2022-08-17T14:17:41.429Z,4.23
2022-08-17T14:20:11.755Z,9.33
2022-08-17T14:22:43.229Z,4.40
2022-08-17T14:25:13.080Z,4.10
2022-08-17T14:27:52.234Z,4.70
2022-08-17T14:30:24.914Z,4.53
2022-08-17T14:32:53.238Z,4.90
2022-08-17T14:35:22.597Z,4.00
2022-08-17T14:37:50.678Z,4.20
2022-08-17T14:40:20.397Z,3.90
2022-08-17T14:42:47.514Z,4.23
2022-08-17T14:45:29.607Z,3.70
2022-08-17T14:48:01.048Z,3.70
2022-08-17T14:50:27.838Z,3.90
2022-08-17T14:52:58.076Z,3.40
2022-08-17T14:55:25.123Z,4.63
2022-08-17T14:57:52.009Z,4.07
2022-08-17T15:00:19.091Z,3.63
2022-08-17T15:02:58.875Z,3.83
2022-08-17T15:05:31.353Z,4.00
2022-08-17T15:07:59.276Z,4.47
2022-08-17T15:10:26.365Z,4.10
2022-08-17T15:12:53.176Z,4.23
2022-08-17T15:15:20.276Z,4.30
2022-08-17T15:17:47.125Z,4.03
2022-08-17T15:20:23.802Z,3.80
2022-08-17T15:22:55.185Z,3.80
2022-08-17T15:25:23.439Z,4.67
2022-08-17T15:27:50.526Z,3.60
2022-08-17T15:30:17.805Z,3.50
2022-08-17T15:32:51.470Z,4.20
2022-08-17T15:35:28.263Z,4.00
2022-08-17T15:38:11.584Z,3.57
2022-08-17T15:40:43.146Z,4.10
2022-08-17T15:43:14.235Z,3.43
2022-08-17T15:45:41.197Z,3.83
2022-08-17T15:48:09.007Z,3.23
2022-08-17T15:50:36.262Z,3.73
2022-08-17T15:53:04.892Z,3.63
2022-08-17T15:55:32.812Z,3.80
2022-08-17T15:58:00.090Z,3.80
2022-08-17T16:00:29.161Z,4.00
2022-08-17T16:03:45.219Z,4.43
2022-08-17T16:05:46.616Z,3.90
2022-08-17T16:08:20.159Z,3.77
2022-08-17T16:10:48.589Z,3.60
2022-08-17T16:13:17.642Z,4.47
2022-08-17T16:15:49.757Z,4.87
2022-08-17T16:18:31.192Z,5.23
2022-08-17T16:21:26.115Z,4.23
2022-08-17T16:24:01.711Z,4.37
2022-08-17T16:26:30.343Z,3.93
2022-08-17T16:28:59.203Z,5.10
2022-08-17T16:31:26.766Z,4.13
2022-08-17T16:34:15.816Z,4.37
2022-08-17T16:36:41.588Z,3.60
2022-08-17T16:39:21.350Z,4.30
2022-08-17T16:41:48.342Z,4.43
2022-08-17T16:44:16.946Z,4.53
2022-08-17T16:46:45.632Z,4.63
2022-08-17T16:49:24.477Z,4.57
2022-08-17T16:52:02.885Z,4.10
2022-08-17T16:54:29.693Z,4.23
2022-08-17T16:56:56.432Z,4.67
2022-08-17T16:59:30.376Z,4.70
2022-08-17T17:02:04.840Z,4.37
2022-08-17T17:04:34.988Z,3.80
2022-08-17T17:07:33.704Z,4.17
2022-08-17T17:10:14.196Z,4.80
2022-08-17T17:13:03.791Z,4.30
2022-08-17T17:15:46.026Z,4.30
2022-08-17T17:18:15.401Z,4.00
2022-08-17T17:20:54.607Z,3.80
2022-08-17T17:23:36.398Z,3.83
2022-08-17T17:26:08.612Z,4.97
2022-08-17T17:28:56.825Z,4.53
2022-08-17T17:31:32.035Z,4.50
2022-08-17T17:34:03.956Z,3.73
2022-08-17T17:36:43.015Z,4.73
2022-08-17T17:39:43.612Z,4.20
2022-08-17T17:42:15.168Z,4.80
2022-08-17T17:44:54.151Z,4.20
2022-08-17T17:47:21.431Z,4.40
2022-08-17T17:49:51.043Z,5.60
2022-08-17T17:52:32.691Z,5.33
2022-08-17T17:55:04.992Z,4.23
2022-08-17T17:58:02.801Z,4.60
2022-08-17T18:00:43.930Z,4.10
2022-08-17T18:03:32.447Z,5.10
2022-08-17T18:06:25.690Z,4.57
2022-08-17T18:09:18.083Z,4.33
2022-08-17T18:12:19.772Z,4.90
2022-08-17T18:15:21.765Z,4.20
2022-08-17T18:18:02.235Z,4.70
2022-08-17T18:20:37.134Z,4.90
2022-08-17T18:23:16.148Z,4.70
2022-08-17T18:25:52.942Z,5.20
2022-08-17T18:28:32.477Z,6.30
2022-08-17T18:31:19.812Z,5.03
2022-08-17T18:33:52.511Z,4.97
2022-08-17T18:36:32.807Z,4.80
2022-08-17T18:39:14.906Z,5.57
2022-08-17T18:41:44.223Z,5.73
2022-08-17T18:44:29.104Z,4.20
2022-08-17T18:47:23.657Z,5.27
2022-08-17T18:50:22.717Z,4.63
2022-08-17T18:52:50.668Z,5.27
2022-08-17T18:55:23.242Z,5.10
2022-08-17T18:58:01.838Z,5.33
2022-08-17T19:00:36.721Z,4.73
2022-08-17T19:03:18.418Z,4.57
2022-08-17T19:05:51.920Z,5.27
2022-08-17T19:08:18.718Z,4.57
2022-08-17T19:10:48.652Z,5.00
2022-08-17T19:13:23.841Z,5.00
2022-08-17T19:16:15.793Z,4.80
2022-08-17T19:19:11.281Z,5.13
2022-08-17T19:21:41.473Z,4.40
2022-08-17T19:24:11.280Z,4.90
2022-08-17T19:26:54.032Z,5.40
2022-08-17T19:29:41.232Z,4.37
2022-08-17T19:32:10.542Z,4.40
2022-08-17T19:34:39.114Z,4.80
2022-08-17T19:37:14.120Z,4.30
2022-08-17T19:39:50.802Z,4.97
2022-08-17T19:42:49.874Z,5.00
2022-08-17T19:45:56.015Z,5.70
2022-08-17T19:48:46.263Z,5.73
2022-08-17T19:51:30.546Z,5.10
2022-08-17T19:54:06.926Z,5.47
2022-08-17T19:56:39.842Z,4.60
2022-08-17T19:59:36.110Z,4.03
2022-08-17T20:02:23.976Z,5.13
2022-08-17T20:04:52.266Z,5.10
2022-08-17T20:07:25.760Z,5.83
2022-08-17T20:10:04.114Z,5.80
2022-08-17T20:12:35.561Z,4.83
2022-08-17T20:15:10.353Z,4.57
2022-08-17T20:17:46.012Z,5.20
2022-08-17T20:20:19.622Z,4.83
2022-08-17T20:23:04.843Z,5.73
2022-08-17T20:25:42.034Z,5.60
2022-08-17T20:29:02.638Z,4.53
2022-08-17T20:31:45.442Z,4.80
2022-08-17T20:34:33.504Z,5.10
2022-08-17T20:37:24.271Z,4.30
2022-08-17T20:39:52.491Z,4.90
2022-08-17T20:42:22.572Z,5.40
2022-08-17T20:44:57.985Z,5.00
2022-08-17T20:47:30.020Z,5.20
2022-08-17T20:50:05.465Z,6.00
2022-08-17T20:52:44.748Z,4.70
2022-08-17T20:55:51.963Z,5.43
2022-08-17T20:58:31.181Z,5.30
2022-08-17T21:00:58.866Z,5.63
2022-08-17T21:03:38.863Z,5.80
2022-08-17T21:06:18.531Z,5.20
2022-08-17T21:09:13.033Z,5.70
2022-08-17T21:11:58.213Z,4.57
2022-08-17T21:14:58.085Z,6.27
2022-08-17T21:17:56.602Z,12.23
2022-08-17T21:20:39.527Z,7.90
2022-08-17T21:23:26.517Z,6.67
2022-08-17T21:26:17.360Z,8.30
2022-08-17T21:29:00.820Z,6.73
2022-08-17T21:31:34.723Z,7.73
2022-08-17T21:34:16.891Z,7.50
2022-08-17T21:36:45.561Z,7.90
2022-08-17T21:39:21.366Z,7.60
2022-08-17T21:41:53.763Z,7.27
2022-08-17T21:44:34.968Z,7.30
2022-08-17T21:47:24.561Z,7.20
2022-08-17T21:49:56.458Z,7.07
2022-08-17T21:52:26.335Z,7.30
2022-08-17T21:55:00.290Z,8.03
2022-08-17T21:57:29.111Z,7.60
2022-08-17T22:00:01.543Z,6.90
2022-08-17T22:02:41.705Z,5.80
2022-08-17T22:05:11.472Z,6.50
2022-08-17T22:07:45.783Z,7.40
2022-08-17T22:10:41.804Z,8.37
2022-08-17T22:13:24.154Z,8.00
2022-08-17T22:16:29.362Z,8.90
2022-08-17T22:18:58.831Z,8.50
2022-08-17T22:21:26.404Z,7.23
2022-08-17T22:24:06.036Z,7.10
2022-08-17T22:27:12.925Z,6.90
2022-08-17T22:30:00.258Z,6.83
2022-08-17T22:32:39.962Z,7.90
2022-08-17T22:35:28.889Z,8.13
2022-08-17T22:37:57.191Z,7.47
2022-08-17T22:40:30.561Z,7.27
2022-08-17T22:43:00.131Z,8.37
2022-08-17T22:45:29.744Z,8.50
2022-08-17T22:47:58.718Z,9.20
2022-08-17T22:50:30.436Z,8.20
2022-08-17T22:53:22.523Z,8.90
2022-08-17T22:56:14.044Z,9.17
2022-08-17T22:59:10.498Z,8.80
2022-08-17T23:01:39.141Z,9.60
2022-08-17T23:04:09.509Z,8.80
2022-08-17T23:06:38.247Z,8.83
2022-08-17T23:09:07.261Z,8.20
2022-08-17T23:11:49.267Z,9.20
2022-08-17T23:14:19.866Z,7.43
2022-08-17T23:16:50.216Z,7.50
2022-08-17T23:19:20.453Z,8.90
2022-08-17T23:21:51.085Z,8.40
2022-08-17T23:24:28.266Z,7.23
2022-08-17T23:26:57.433Z,8.87
2022-08-17T23:29:25.089Z,8.23
2022-08-17T23:31:52.759Z,8.57
2022-08-17T23:34:20.046Z,8.60
2022-08-17T23:36:52.293Z,8.00
2022-08-17T23:39:27.402Z,9.00
2022-08-17T23:42:00.166Z,7.70
2022-08-17T23:44:28.736Z,8.20
2022-08-17T23:46:55.576Z,8.80
2022-08-17T23:49:23.681Z,8.93
2022-08-17T23:51:50.600Z,8.07
2022-08-17T23:54:24.400Z,8.97
2022-08-17T23:56:51.189Z,8.23
2022-08-17T23:59:20.760Z,8.70
